createdAt,value
2022-11-16T00:02:21.221Z,7.39
2022-11-16T00:05:28.146Z,7.39
2022-11-16T00:08:33.582Z,7.37
2022-11-16T00:11:38.078Z,7.35
2022-11-16T00:14:40.606Z,7.32
2022-11-16T00:17:43.319Z,7.30
2022-11-16T00:20:45.850Z,7.26
2022-11-16T00:23:48.580Z,7.29
2022-11-16T00:26:53.012Z,7.32
2022-11-16T00:29:55.764Z,7.32
2022-11-16T00:33:05.486Z,7.30
2022-11-16T00:36:11.162Z,7.29
2022-11-16T00:39:15.069Z,7.26
2022-11-16T00:42:17.912Z,7.26
2022-11-16T00:45:20.437Z,7.27
2022-11-16T00:48:23.248Z,7.21
2022-11-16T00:51:25.941Z,7.19
2022-11-16T00:54:28.780Z,7.17
2022-11-16T00:57:31.341Z,7.18
2022-11-16T01:00:34.148Z,7.18
2022-11-16T01:03:37.955Z,7.16
2022-11-16T01:06:40.866Z,7.13
2022-11-16T01:09:43.346Z,7.14
2022-11-16T01:12:47.371Z,7.13
2022-11-16T01:15:49.954Z,7.13
2022-11-16T01:18:54.021Z,7.12
2022-11-16T01:21:56.598Z,7.10
2022-11-16T01:24:59.318Z,7.09
2022-11-16T01:28:01.802Z,7.10
2022-11-16T01:31:05.744Z,7.12
2022-11-16T01:34:09.182Z,7.10
2022-11-16T01:37:12.052Z,7.11
2022-11-16T01:40:15.355Z,7.12
2022-11-16T01:43:25.721Z,7.11
2022-11-16T01:46:30.146Z,7.11
2022-11-16T01:49:36.508Z,7.12
2022-11-16T01:53:08.519Z,7.14
2022-11-16T01:56:12.850Z,7.16
2022-11-16T01:59:16.139Z,7.14
2022-11-16T02:02:19.131Z,7.16
2022-11-16T02:05:33.681Z,7.13
2022-11-16T02:09:18.146Z,7.15
2022-11-16T02:12:43.588Z,7.15
2022-11-16T02:15:52.114Z,7.12
2022-11-16T02:19:10.718Z,7.10
2022-11-16T02:22:32.017Z,7.08
2022-11-16T02:25:50.396Z,7.10
2022-11-16T02:29:16.552Z,7.08
2022-11-16T02:32:31.897Z,7.10
2022-11-16T02:35:44.359Z,7.07
2022-11-16T02:39:01.758Z,7.11
2022-11-16T02:42:07.317Z,7.11
2022-11-16T02:45:13.025Z,7.10
2022-11-16T02:48:26.232Z,7.16
2022-11-16T02:51:29.623Z,7.13
2022-11-16T02:54:32.679Z,7.11
2022-11-16T02:57:43.526Z,7.09
2022-11-16T03:01:01.589Z,7.08
2022-11-16T03:04:20.251Z,7.04
2022-11-16T03:07:27.373Z,7.03
2022-11-16T03:10:50.568Z,7.04
2022-11-16T03:14:02.916Z,7.03
2022-11-16T03:17:32.910Z,7.02
2022-11-16T03:20:36.211Z,7.02
2022-11-16T03:23:39.436Z,7.03
2022-11-16T03:26:49.687Z,7.06
2022-11-16T03:29:59.545Z,7.03
2022-11-16T03:33:19.674Z,7.05
2022-11-16T03:36:28.320Z,7.07
2022-11-16T03:39:33.971Z,7.10
2022-11-16T03:42:37.946Z,7.09
2022-11-16T03:45:41.063Z,7.08
2022-11-16T03:48:44.481Z,7.12
2022-11-16T03:51:48.081Z,7.11
2022-11-16T03:54:51.127Z,7.10
2022-11-16T03:57:54.006Z,7.07
2022-11-16T04:00:57.144Z,7.08
2022-11-16T04:04:02.363Z,7.08
2022-11-16T04:07:23.588Z,7.08
2022-11-16T04:10:44.947Z,7.10
2022-11-16T04:14:09.054Z,7.10
2022-11-16T04:17:34.214Z,7.10
2022-11-16T04:20:55.623Z,7.07
2022-11-16T04:24:13.881Z,7.07
2022-11-16T04:27:36.140Z,7.07
2022-11-16T04:31:01.220Z,7.07
2022-11-16T04:34:22.753Z,7.10
2022-11-16T04:37:44.623Z,7.11
2022-11-16T04:40:47.961Z,7.08
2022-11-16T04:43:50.780Z,7.09
2022-11-16T04:47:06.929Z,7.12
2022-11-16T04:50:10.190Z,7.10
2022-11-16T04:53:13.946Z,7.14
2022-11-16T04:56:18.617Z,7.10
2022-11-16T04:59:22.503Z,7.10
2022-11-16T05:02:26.082Z,7.13
2022-11-16T05:05:29.016Z,7.17
2022-11-16T05:08:32.881Z,7.13
2022-11-16T05:11:35.852Z,7.13
2022-11-16T05:14:38.811Z,7.10
2022-11-16T05:17:41.254Z,7.11
2022-11-16T05:21:00.977Z,7.10
2022-11-16T05:24:22.590Z,7.11
2022-11-16T05:27:27.238Z,7.10
2022-11-16T05:30:30.360Z,7.12
2022-11-16T05:33:33.955Z,7.10
2022-11-16T05:36:36.792Z,7.16
2022-11-16T05:39:39.946Z,7.13
2022-11-16T05:42:42.575Z,7.18
2022-11-16T05:45:45.576Z,7.15
2022-11-16T05:48:49.015Z,7.10
2022-11-16T05:51:52.016Z,7.11
2022-11-16T05:54:54.791Z,7.12
2022-11-16T05:57:58.197Z,7.13
2022-11-16T06:01:01.139Z,7.14
2022-11-16T06:04:04.026Z,7.16
2022-11-16T06:07:07.151Z,7.16
2022-11-16T06:10:10.573Z,7.18
2022-11-16T06:13:13.855Z,7.21
2022-11-16T06:16:16.789Z,7.20
2022-11-16T06:19:19.242Z,7.20
2022-11-16T06:22:22.035Z,7.21
2022-11-16T06:25:24.734Z,7.22
2022-11-16T06:28:28.233Z,7.26
2022-11-16T06:31:30.896Z,7.26
2022-11-16T06:34:36.811Z,7.26
2022-11-16T06:37:39.514Z,7.25
2022-11-16T06:40:43.135Z,7.26
2022-11-16T06:43:45.697Z,7.28
2022-11-16T06:46:49.295Z,7.20
2022-11-16T06:49:51.984Z,7.28
2022-11-16T06:52:55.540Z,7.28
2022-11-16T06:56:03.173Z,7.29
2022-11-16T06:59:06.749Z,7.28
2022-11-16T07:02:11.315Z,7.26
2022-11-16T07:05:14.835Z,7.26
2022-11-16T07:08:17.826Z,7.32
2022-11-16T07:11:20.897Z,7.38
2022-11-16T07:14:23.870Z,7.36
2022-11-16T07:17:26.967Z,7.39
2022-11-16T07:20:29.541Z,7.39
2022-11-16T07:23:33.553Z,7.43
2022-11-16T07:26:36.667Z,7.48
2022-11-16T07:29:40.758Z,7.50
2022-11-16T07:32:44.042Z,7.49
2022-11-16T07:35:47.193Z,7.53
2022-11-16T07:38:49.731Z,7.53
2022-11-16T07:41:54.415Z,7.56
2022-11-16T07:44:57.409Z,7.44
2022-11-16T07:48:01.082Z,7.52
2022-11-16T07:51:08.258Z,7.55
2022-11-16T07:54:15.197Z,7.51
2022-11-16T07:57:17.700Z,7.51
2022-11-16T08:00:20.542Z,7.53
2022-11-16T08:03:24.934Z,7.56
2022-11-16T08:06:30.101Z,7.53
2022-11-16T08:09:34.803Z,7.58
2022-11-16T08:12:37.664Z,7.58
2022-11-16T08:15:41.361Z,7.63
2022-11-16T08:18:44.891Z,7.60
2022-11-16T08:21:48.070Z,7.58
2022-11-16T08:24:50.787Z,7.60
2022-11-16T08:27:53.697Z,7.60
2022-11-16T08:30:57.097Z,7.64
2022-11-16T08:34:00.614Z,7.66
2022-11-16T08:37:03.582Z,7.66
2022-11-16T08:40:08.098Z,7.69
2022-11-16T08:43:12.258Z,7.74
2022-11-16T08:46:15.635Z,7.77
2022-11-16T08:49:18.999Z,7.76
2022-11-16T08:52:22.852Z,7.77
2022-11-16T08:55:26.041Z,7.77
2022-11-16T08:58:29.177Z,7.77
2022-11-16T09:01:32.914Z,7.78
2022-11-16T09:04:37.162Z,7.81
2022-11-16T09:07:40.880Z,7.81
2022-11-16T09:10:44.093Z,7.88
2022-11-16T09:13:48.066Z,7.95
2022-11-16T09:16:52.325Z,8.03
2022-11-16T09:19:55.416Z,7.93
2022-11-16T09:22:58.191Z,7.88
2022-11-16T09:26:03.831Z,7.87
2022-11-16T09:29:11.751Z,7.93
2022-11-16T09:32:14.216Z,7.98
2022-11-16T09:35:17.478Z,7.93
2022-11-16T09:38:30.524Z,8.01
2022-11-16T09:41:50.713Z,8.01
2022-11-16T09:45:01.344Z,8.04
2022-11-16T09:48:06.117Z,8.04
2022-11-16T09:51:12.814Z,8.03
2022-11-16T09:54:20.362Z,8.06
2022-11-16T09:57:29.757Z,8.03
2022-11-16T10:00:33.565Z,8.06
2022-11-16T10:03:41.307Z,8.08
2022-11-16T10:07:03.783Z,8.05
2022-11-16T10:10:15.848Z,8.00
2022-11-16T10:13:37.162Z,8.01
2022-11-16T10:16:48.096Z,8.03
2022-11-16T10:19:56.495Z,8.03
2022-11-16T10:23:15.225Z,8.05
2022-11-16T10:26:46.285Z,8.08
2022-11-16T10:30:17.245Z,8.11
2022-11-16T10:33:21.139Z,8.12
2022-11-16T10:36:27.543Z,8.17
2022-11-16T10:39:31.482Z,8.12
2022-11-16T10:42:39.458Z,8.21
2022-11-16T10:45:47.727Z,8.24
2022-11-16T10:49:05.356Z,8.23
2022-11-16T10:52:07.891Z,8.19
2022-11-16T10:55:15.601Z,8.19
2022-11-16T10:58:18.120Z,8.20
2022-11-16T11:01:38.465Z,8.26
2022-11-16T11:04:41.013Z,8.26
2022-11-16T11:07:55.315Z,8.21
2022-11-16T11:11:25.007Z,8.23
2022-11-16T11:14:27.770Z,8.25
2022-11-16T11:17:32.734Z,8.26
2022-11-16T11:20:38.077Z,8.24
2022-11-16T11:23:50.905Z,8.35
2022-11-16T11:26:55.814Z,8.39
2022-11-16T11:29:59.227Z,8.39
2022-11-16T11:33:09.850Z,8.39
2022-11-16T11:36:21.253Z,8.38
2022-11-16T11:39:24.130Z,8.45
2022-11-16T11:42:26.762Z,8.33
2022-11-16T11:45:46.709Z,8.45
2022-11-16T11:48:58.536Z,8.43
2022-11-16T11:52:18.887Z,8.49
2022-11-16T11:55:21.575Z,8.41
2022-11-16T11:58:35.864Z,8.38
2022-11-16T12:02:06.456Z,8.41
2022-11-16T12:05:48.905Z,8.44
2022-11-16T12:09:05.116Z,8.41
2022-11-16T12:12:21.690Z,8.39
2022-11-16T12:15:59.349Z,8.39
2022-11-16T12:19:11.596Z,8.35
2022-11-16T12:22:28.969Z,8.32
2022-11-16T12:25:41.622Z,8.32
2022-11-16T12:28:56.237Z,8.40
2022-11-16T12:32:01.648Z,8.47
2022-11-16T12:35:33.724Z,8.42
2022-11-16T12:38:57.988Z,8.35
2022-11-16T12:42:09.242Z,8.38
2022-11-16T12:45:36.497Z,8.39
2022-11-16T12:48:49.592Z,8.27
2022-11-16T12:52:15.290Z,8.37
2022-11-16T12:55:32.333Z,8.34
2022-11-16T12:58:52.612Z,8.25
2022-11-16T13:02:08.217Z,8.32
2022-11-16T13:05:18.986Z,8.21
2022-11-16T13:08:21.471Z,8.24
2022-11-16T13:11:28.126Z,8.08
2022-11-16T13:14:37.614Z,8.01
2022-11-16T13:17:54.323Z,7.94
2022-11-16T13:21:13.499Z,7.91
2022-11-16T13:24:47.068Z,7.86
2022-11-16T13:28:10.837Z,7.87
2022-11-16T13:31:26.192Z,7.86
2022-11-16T13:34:33.281Z,7.82
2022-11-16T13:37:39.021Z,7.81
2022-11-16T13:40:41.738Z,7.85
2022-11-16T13:43:50.650Z,7.88
2022-11-16T13:46:56.186Z,7.90
2022-11-16T13:50:01.617Z,7.92
2022-11-16T13:54:10.737Z,7.98
2022-11-16T13:57:02.869Z,8.01
2022-11-16T14:00:11.813Z,8.11
2022-11-16T14:03:17.597Z,8.10
2022-11-16T14:06:19.964Z,8.07
2022-11-16T14:09:50.415Z,8.13
2022-11-16T14:12:54.464Z,8.15
2022-11-16T14:16:15.597Z,8.16
2022-11-16T14:19:44.471Z,8.15
2022-11-16T14:23:06.735Z,8.06
2022-11-16T14:26:24.629Z,8.11
2022-11-16T14:29:36.743Z,8.17
2022-11-16T14:32:47.832Z,8.14
2022-11-16T14:35:52.793Z,8.16
2022-11-16T14:38:55.597Z,8.12
2022-11-16T14:42:02.093Z,8.09
2022-11-16T14:45:16.483Z,8.11
2022-11-16T14:48:21.865Z,8.09
2022-11-16T14:51:31.622Z,8.08
2022-11-16T14:54:39.407Z,8.03
2022-11-16T14:57:42.133Z,8.00
2022-11-16T15:00:58.022Z,7.97
2022-11-16T15:04:06.514Z,7.94
2022-11-16T15:07:11.363Z,7.93
2022-11-16T15:10:17.368Z,7.93
2022-11-16T15:13:21.869Z,7.92
2022-11-16T15:16:24.334Z,7.94
2022-11-16T15:19:30.848Z,7.96
2022-11-16T15:22:40.622Z,7.97
2022-11-16T15:25:52.788Z,7.98
2022-11-16T15:28:55.408Z,7.97
2022-11-16T15:31:58.536Z,7.96
2022-11-16T15:35:05.194Z,7.96
2022-11-16T15:38:28.451Z,7.95
2022-11-16T15:41:31.071Z,7.94
2022-11-16T15:44:33.842Z,7.93
2022-11-16T15:47:37.453Z,7.91
2022-11-16T15:50:40.396Z,7.91
2022-11-16T15:53:45.184Z,7.89
2022-11-16T15:56:48.314Z,7.85
2022-11-16T15:59:56.270Z,7.84
2022-11-16T16:03:04.303Z,7.84
2022-11-16T16:06:08.717Z,7.84
2022-11-16T16:09:18.117Z,7.82
2022-11-16T16:12:22.724Z,7.81
2022-11-16T16:15:29.883Z,7.80
2022-11-16T16:18:41.718Z,7.79
2022-11-16T16:21:45.956Z,7.77
2022-11-16T16:24:48.747Z,7.76
2022-11-16T16:27:51.247Z,7.73
2022-11-16T16:30:54.035Z,7.70
2022-11-16T16:33:56.747Z,7.68
2022-11-16T16:36:59.671Z,7.68
2022-11-16T16:40:02.279Z,7.63
2022-11-16T16:43:05.116Z,7.61
2022-11-16T16:46:07.573Z,7.60
2022-11-16T16:49:10.831Z,7.58
2022-11-16T16:52:13.776Z,7.55
2022-11-16T16:55:16.645Z,7.55
2022-11-16T16:58:19.349Z,7.54
2022-11-16T17:01:22.245Z,7.55
2022-11-16T17:04:25.533Z,7.50
2022-11-16T17:07:29.579Z,7.48
2022-11-16T17:10:32.599Z,7.46
2022-11-16T17:13:35.771Z,7.46
2022-11-16T17:16:38.705Z,7.48
2022-11-16T17:19:41.798Z,7.49
2022-11-16T17:22:44.571Z,7.47
2022-11-16T17:25:47.597Z,7.48
2022-11-16T17:28:55.589Z,7.49
2022-11-16T17:31:58.999Z,7.50
2022-11-16T17:35:01.762Z,7.52
2022-11-16T17:38:04.857Z,7.54
2022-11-16T17:41:15.681Z,7.55
2022-11-16T17:44:21.893Z,7.56
2022-11-16T17:47:24.833Z,7.51
2022-11-16T17:50:27.918Z,7.53
2022-11-16T17:53:32.801Z,7.50
2022-11-16T17:56:36.137Z,7.51
2022-11-16T17:59:41.117Z,7.55
2022-11-16T18:02:44.003Z,7.48
2022-11-16T18:05:46.872Z,7.47
2022-11-16T18:08:49.842Z,7.44
2022-11-16T18:11:52.863Z,7.44
2022-11-16T18:15:26.333Z,7.41
2022-11-16T18:18:18.369Z,7.38
2022-11-16T18:21:21.186Z,7.35
2022-11-16T18:24:24.079Z,7.33
2022-11-16T18:27:26.796Z,7.33
2022-11-16T18:30:29.833Z,7.35
2022-11-16T18:33:33.157Z,7.32
2022-11-16T18:36:36.188Z,7.27
2022-11-16T18:39:38.864Z,7.30
2022-11-16T18:42:41.944Z,7.28
2022-11-16T18:45:44.462Z,7.25
2022-11-16T18:48:47.594Z,7.24
2022-11-16T18:51:50.573Z,7.22
2022-11-16T18:54:53.535Z,7.22
2022-11-16T18:57:56.279Z,7.21
2022-11-16T19:01:04.263Z,7.20
2022-11-16T19:04:08.841Z,7.20
2022-11-16T19:07:13.133Z,7.18
2022-11-16T19:10:16.341Z,7.20
2022-11-16T19:13:19.720Z,7.18
2022-11-16T19:16:24.167Z,7.18
2022-11-16T19:19:28.033Z,7.17
2022-11-16T19:22:33.575Z,7.16
2022-11-16T19:25:36.538Z,7.16
2022-11-16T19:28:41.659Z,7.14
2022-11-16T19:31:44.669Z,7.11
2022-11-16T19:34:47.434Z,7.11
2022-11-16T19:37:51.527Z,7.11
2022-11-16T19:40:54.332Z,7.11
2022-11-16T19:43:59.951Z,7.12
2022-11-16T19:47:02.731Z,7.14
2022-11-16T19:50:06.978Z,7.13
2022-11-16T19:53:09.934Z,7.12
2022-11-16T19:56:14.914Z,7.14
2022-11-16T19:59:18.069Z,7.16
2022-11-16T20:02:21.092Z,7.05
2022-11-16T20:05:25.491Z,7.17
2022-11-16T20:08:27.964Z,7.20
2022-11-16T20:11:33.830Z,7.20
2022-11-16T20:14:36.630Z,7.18
2022-11-16T20:17:39.669Z,7.19
2022-11-16T20:20:42.352Z,7.20
2022-11-16T20:23:45.663Z,7.20
2022-11-16T20:26:49.170Z,7.21
2022-11-16T20:29:52.455Z,7.21
2022-11-16T20:32:55.159Z,7.21
2022-11-16T20:36:08.697Z,7.17
2022-11-16T20:39:15.952Z,7.12
2022-11-16T20:42:21.869Z,7.09
2022-11-16T20:45:24.811Z,7.14
2022-11-16T20:48:27.658Z,7.15
2022-11-16T20:51:30.639Z,7.14
2022-11-16T20:54:33.771Z,7.13
2022-11-16T20:57:36.443Z,7.19
2022-11-16T21:00:39.411Z,7.16
2022-11-16T21:03:42.636Z,7.13
2022-11-16T21:06:45.614Z,7.00
2022-11-16T21:10:06.537Z,7.08
2022-11-16T21:13:32.631Z,7.03
2022-11-16T21:16:35.420Z,6.97
2022-11-16T21:19:38.394Z,6.92
2022-11-16T21:22:40.909Z,6.90
2022-11-16T21:25:43.678Z,6.84
2022-11-16T21:28:46.283Z,6.85
2022-11-16T21:31:49.081Z,6.90
2022-11-16T21:34:51.522Z,6.91
2022-11-16T21:37:54.332Z,6.95
2022-11-16T21:40:56.832Z,6.93
2022-11-16T21:43:59.584Z,6.93
2022-11-16T21:47:02.052Z,6.91
2022-11-16T21:53:27.598Z,6.84
2022-11-16T21:56:30.290Z,6.78
2022-11-16T21:59:32.721Z,6.75
2022-11-16T22:02:35.486Z,6.70
2022-11-16T22:05:56.886Z,6.67
2022-11-16T22:08:59.484Z,6.62
2022-11-16T22:12:05.262Z,6.62
2022-11-16T22:15:08.380Z,6.63
2022-11-16T22:18:11.310Z,6.45
2022-11-16T22:21:13.851Z,6.53
2022-11-16T22:24:16.584Z,6.55
2022-11-16T22:27:19.389Z,6.52
2022-11-16T22:30:22.202Z,6.44
2022-11-16T22:33:24.674Z,6.39
2022-11-16T22:36:27.438Z,6.38
2022-11-16T22:39:29.985Z,6.30
2022-11-16T22:42:32.815Z,6.29
2022-11-16T22:45:35.270Z,6.36
2022-11-16T22:48:39.961Z,6.42
2022-11-16T22:51:42.450Z,6.43
2022-11-16T22:54:45.181Z,6.51
2022-11-16T22:57:47.627Z,6.58
2022-11-16T23:00:51.808Z,6.65
2022-11-16T23:03:54.410Z,6.71
2022-11-16T23:06:57.175Z,6.73
2022-11-16T23:09:59.713Z,6.77
2022-11-16T23:13:20.768Z,6.79
2022-11-16T23:16:23.412Z,6.81
2022-11-16T23:19:45.227Z,6.79
2022-11-16T23:23:06.096Z,6.80
2022-11-16T23:26:34.120Z,6.77
2022-11-16T23:29:36.661Z,6.76
2022-11-16T23:32:39.497Z,6.74
2022-11-16T23:35:41.982Z,6.71
2022-11-16T23:38:44.749Z,6.70
2022-11-16T23:42:05.912Z,6.64
2022-11-16T23:45:08.987Z,6.60
2022-11-16T23:48:14.177Z,6.59
2022-11-16T23:51:18.741Z,6.58
2022-11-16T23:54:21.215Z,6.59
2022-11-16T23:57:23.941Z,6.59
